Time;durP1;ratioP1;P1;durP2;ratioP2;P2;SDS_P1;SDS_P2;PMS_P1;PMS_P2;Temp;Humidity;BMP_temperature;BMP_pressure;BME280_temperature;BME280_humidity;BME280_pressure;Samples;Min_cycle;Max_cycle;Signal;HPM_P1;HPM_P2
2023/12/23 00:01:10;;;;;;;3.90;1.20;;;;;;;6.78;100.00;100931.28;5051590;28;20466;-79
2023/12/23 00:03:36;;;;;;;4.45;1.70;;;;;;;6.74;100.00;100931.81;5051515;28;20112;-79
2023/12/23 00:06:01;;;;;;;8.77;2.40;;;;;;;6.74;100.00;100937.13;5051425;28;20036;-79
2023/12/23 00:08:26;;;;;;;4.30;0.88;;;;;;;6.72;100.00;100934.63;5051395;28;20076;-79
2023/12/23 00:10:51;;;;;;;6.20;1.05;;;;;;;6.71;100.00;100934.81;5051287;28;20039;-79
2023/12/23 00:13:17;;;;;;;7.85;1.08;;;;;;;6.66;100.00;100931.84;5051366;28;20032;-79
2023/12/23 00:15:42;;;;;;;2.55;0.65;;;;;;;6.69;100.00;100934.97;5051400;28;20029;-79
2023/12/23 00:18:08;;;;;;;1.73;1.05;;;;;;;6.63;100.00;100935.66;5051140;28;20116;-79
2023/12/23 00:20:33;;;;;;;5.63;1.98;;;;;;;6.68;100.00;100935.13;5051280;28;20115;-79
2023/12/23 00:22:59;;;;;;;3.50;1.10;;;;;;;6.65;100.00;100927.50;5051195;28;20036;-79
2023/12/23 00:25:24;;;;;;;3.55;1.00;;;;;;;6.63;100.00;100917.09;5050972;28;20114;-79
2023/12/23 00:27:50;;;;;;;6.07;1.48;;;;;;;6.59;100.00;100919.25;5050798;28;20948;-79
2023/12/23 00:30:15;;;;;;;6.05;0.82;;;;;;;6.61;100.00;100927.03;5050932;28;20044;-79
2023/12/23 00:32:41;;;;;;;3.08;0.98;;;;;;;6.59;100.00;100927.19;5049348;28;20098;-79
2023/12/23 00:35:07;;;;;;;4.13;0.77;;;;;;;6.55;100.00;100930.38;5049678;28;20479;-79
2023/12/23 00:37:33;;;;;;;10.88;2.30;;;;;;;6.56;100.00;100916.94;5049716;28;20021;-79
2023/12/23 00:39:58;;;;;;;6.25;1.20;;;;;;;6.54;100.00;100920.75;5051159;28;20476;-79
2023/12/23 00:42:23;;;;;;;2.65;0.60;;;;;;;6.54;100.00;100918.91;5050912;28;20496;-79
2023/12/23 00:44:49;;;;;;;4.95;1.02;;;;;;;6.52;100.00;100907.69;5050788;28;20433;-79
2023/12/23 00:47:14;;;;;;;3.05;1.23;;;;;;;6.54;100.00;100913.63;5049454;28;20048;-79
2023/12/23 00:49:40;;;;;;;3.15;0.85;;;;;;;6.52;100.00;100910.34;5049442;28;20048;-79
2023/12/23 00:52:05;;;;;;;7.55;1.35;;;;;;;6.56;100.00;100906.34;5050782;28;20064;-79
2023/12/23 00:54:31;;;;;;;6.50;1.23;;;;;;;6.55;100.00;100886.16;5050788;28;20033;-79
2023/12/23 00:56:57;;;;;;;2.60;1.08;;;;;;;6.59;100.00;100892.75;5050613;28;20021;-79
2023/12/23 00:59:22;;;;;;;8.88;1.80;;;;;;;6.63;100.00;100905.66;5050783;28;20037;-79
2023/12/23 01:01:47;;;;;;;7.93;1.05;;;;;;;6.62;100.00;100888.09;5049606;28;20025;-79
2023/12/23 01:04:13;;;;;;;4.13;1.52;;;;;;;6.57;100.00;100902.69;5053066;28;20033;-79
2023/12/23 01:06:38;;;;;;;2.45;1.00;;;;;;;6.57;100.00;100901.84;5054641;28;20132;-79
2023/12/23 01:09:04;;;;;;;4.50;1.58;;;;;;;6.52;100.00;100902.38;5054281;28;20033;-79
2023/12/23 01:11:30;;;;;;;3.70;1.60;;;;;;;6.48;100.00;100892.28;5054150;28;20056;-79
2023/12/23 01:13:55;;;;;;;5.35;1.35;;;;;;;6.50;100.00;100891.13;5054509;28;20110;-79
2023/12/23 01:16:20;;;;;;;3.20;1.17;;;;;;;6.48;100.00;100895.75;5054510;28;20017;-79
2023/12/23 01:18:46;;;;;;;6.78;1.10;;;;;;;6.47;100.00;100885.31;5053001;28;20052;-79
2023/12/23 01:21:11;;;;;;;4.90;1.50;;;;;;;6.49;100.00;100891.28;5054468;28;20021;-79
2023/12/23 01:23:36;;;;;;;4.22;1.50;;;;;;;6.48;100.00;100873.75;5054168;28;20169;-79
2023/12/23 01:26:02;;;;;;;5.05;1.35;;;;;;;6.51;100.00;100876.03;5054351;28;20764;-79
2023/12/23 01:28:27;;;;;;;5.07;1.60;;;;;;;6.52;100.00;100878.53;5052532;28;20553;-79
2023/12/23 01:30:53;;;;;;;6.32;1.73;;;;;;;6.52;100.00;100878.53;5052882;28;20064;-79
2023/12/23 01:33:18;;;;;;;11.43;1.80;;;;;;;6.56;100.00;100871.06;5054201;28;20080;-80
2023/12/23 01:35:43;;;;;;;6.47;2.20;;;;;;;6.55;100.00;100862.28;5054149;28;20527;-79
2023/12/23 01:38:09;;;;;;;8.10;1.42;;;;;;;6.54;100.00;100857.97;5052761;28;20384;-79
2023/12/23 01:40:35;;;;;;;6.47;2.20;;;;;;;6.62;100.00;100862.44;5054034;28;20123;-79
2023/12/23 01:43:00;;;;;;;6.20;3.25;;;;;;;6.64;100.00;100851.66;5053853;28;20086;-79
2023/12/23 01:45:26;;;;;;;6.20;1.30;;;;;;;6.59;100.00;100844.22;5052376;28;20435;-80
2023/12/23 01:47:53;;;;;;;4.50;1.42;;;;;;;6.61;100.00;100844.88;5053523;28;20419;-79
2023/12/23 01:50:21;;;;;;;6.57;1.60;;;;;;;6.61;100.00;100852.84;5053651;28;20039;-79
2023/12/23 01:52:50;;;;;;;2.83;1.80;;;;;;;6.59;100.00;100844.22;5053408;28;20061;-79
2023/12/23 01:55:15;;;;;;;3.65;1.77;;;;;;;6.62;100.00;100835.94;5053712;28;20029;-79
2023/12/23 01:57:41;;;;;;;2.58;1.65;;;;;;;6.66;100.00;100841.72;5053748;28;20087;-79
2023/12/23 02:00:07;;;;;;;8.15;2.30;;;;;;;6.71;100.00;100839.41;5053842;28;20029;-79
2023/12/23 02:02:38;;;;;;;14.50;3.38;;;;;;;6.75;100.00;100830.09;5053674;28;20044;-79
2023/12/23 02:05:05;;;;;;;6.45;2.30;;;;;;;6.85;100.00;100822.75;5053464;28;20481;-80
2023/12/23 02:07:31;;;;;;;8.13;1.80;;;;;;;6.95;100.00;100833.97;5053136;28;20029;-79
2023/12/23 02:09:56;;;;;;;4.70;1.48;;;;;;;7.01;100.00;100822.66;5053362;28;20095;-79
2023/12/23 02:12:36;;;;;;;10.20;2.75;;;;;;;7.10;100.00;100820.81;5053316;28;20035;-79
2023/12/23 02:15:08;;;;;;;5.60;1.80;;;;;;;7.20;100.00;100816.13;5052787;28;20016;-79
2023/12/23 02:17:34;;;;;;;7.70;2.38;;;;;;;7.36;100.00;100809.88;5053409;28;20024;-80
2023/12/23 02:19:59;;;;;;;10.93;2.58;;;;;;;7.49;100.00;100825.19;5052561;28;20510;-72
2023/12/23 02:22:25;;;;;;;5.55;2.30;;;;;;;7.56;100.00;100806.72;5051173;28;20033;-72
2023/12/23 02:24:50;;;;;;;11.55;2.08;;;;;;;7.57;100.00;100790.66;5050020;28;20036;-72
2023/12/23 02:27:20;;;;;;;7.10;1.58;;;;;;;7.64;100.00;100794.22;5049500;28;20029;-72
2023/12/23 02:29:46;;;;;;;13.85;2.13;;;;;;;7.73;100.00;100810.91;5051054;28;20483;-72
2023/12/23 02:32:14;;;;;;;8.15;1.63;;;;;;;7.76;100.00;100804.44;5051035;28;20060;-72
2023/12/23 02:34:41;;;;;;;6.57;2.10;;;;;;;7.75;100.00;100802.75;5050797;28;20033;-72
2023/12/23 02:37:06;;;;;;;7.15;1.60;;;;;;;7.78;100.00;100792.63;5050806;28;20476;-72
2023/12/23 02:39:31;;;;;;;4.75;2.00;;;;;;;7.81;100.00;100788.78;5049492;28;20032;-73
2023/12/23 02:41:57;;;;;;;10.90;2.03;;;;;;;7.84;100.00;100794.53;5049539;28;20139;-72
2023/12/23 02:44:22;;;;;;;4.30;1.25;;;;;;;7.87;100.00;100782.75;5050833;28;20029;-72
2023/12/23 02:46:48;;;;;;;7.82;1.80;;;;;;;7.90;100.00;100771.75;5050607;28;20037;-72
2023/12/23 02:49:13;;;;;;;7.25;2.10;;;;;;;7.88;100.00;100779.06;5050793;28;20029;-72
2023/12/23 02:51:38;;;;;;;5.90;2.13;;;;;;;7.88;100.00;100773.75;5050649;28;20029;-72
2023/12/23 02:54:04;;;;;;;7.85;1.80;;;;;;;7.90;100.00;100775.22;5049257;28;20036;-72
2023/12/23 02:56:30;;;;;;;3.85;1.63;;;;;;;7.96;100.00;100770.19;5050405;28;20025;-72
2023/12/23 02:58:56;;;;;;;7.32;2.10;;;;;;;7.97;100.00;100767.38;5049186;28;20021;-72
2023/12/23 03:01:21;;;;;;;4.78;1.38;;;;;;;8.03;100.00;100776.44;5050408;28;20035;-72
2023/12/23 03:03:47;;;;;;;7.95;2.00;;;;;;;8.06;100.00;100779.56;5050350;28;20103;-72
2023/12/23 03:06:15;;;;;;;4.13;1.60;;;;;;;8.12;100.00;100775.34;5050305;28;20774;-72
2023/12/23 03:08:41;;;;;;;8.55;1.60;;;;;;;8.14;100.00;100765.34;5050369;28;20029;-72
2023/12/23 03:11:07;;;;;;;4.60;1.40;;;;;;;8.09;100.00;100773.88;5050170;28;20033;-72
2023/12/23 03:13:33;;;;;;;6.88;1.60;;;;;;;8.04;100.00;100763.00;5050057;28;20048;-72
2023/12/23 03:15:58;;;;;;;8.52;2.08;;;;;;;8.00;100.00;100759.03;5050180;28;20063;-72
2023/12/23 03:18:24;;;;;;;6.22;1.85;;;;;;;7.95;100.00;100756.09;5050120;28;20029;-72
2023/12/23 03:20:50;;;;;;;9.60;1.73;;;;;;;7.96;100.00;100768.38;5048866;28;20041;-72
2023/12/23 03:23:16;;;;;;;10.05;1.60;;;;;;;7.97;100.00;100759.41;5050002;28;20036;-72
2023/12/23 03:25:41;;;;;;;4.93;1.40;;;;;;;7.96;100.00;100748.94;5049957;28;20047;-73
2023/12/23 03:28:07;;;;;;;6.00;1.65;;;;;;;7.97;100.00;100758.59;5048934;28;20080;-73
2023/12/23 03:30:32;;;;;;;10.10;1.98;;;;;;;8.00;100.00;100750.25;5048485;28;20036;-72
2023/12/23 03:32:57;;;;;;;15.60;2.95;;;;;;;8.08;100.00;100761.59;5049951;28;20029;-72
2023/12/23 03:35:23;;;;;;;8.13;1.70;;;;;;;8.09;100.00;100752.63;5048482;28;20040;-72
2023/12/23 03:37:48;;;;;;;7.15;1.92;;;;;;;8.08;100.00;100737.69;5049648;28;20032;-72
2023/12/23 03:40:14;;;;;;;7.05;2.63;;;;;;;8.16;100.00;100746.59;5049696;28;20400;-72
2023/12/23 03:42:40;;;;;;;6.80;1.88;;;;;;;8.13;100.00;100732.66;5048363;28;20032;-73
2023/12/23 03:45:07;;;;;;;3.97;1.40;;;;;;;8.12;100.00;100715.09;5049570;28;20108;-73
2023/12/23 03:47:33;;;;;;;11.10;2.78;;;;;;;8.22;100.00;100730.72;5049357;28;20106;-73
2023/12/23 03:49:59;;;;;;;9.18;2.20;;;;;;;8.27;100.00;100736.31;5049383;28;20150;-73
2023/12/23 03:52:24;;;;;;;9.80;1.67;;;;;;;8.35;100.00;100748.69;5049415;28;20037;-72
2023/12/23 03:54:50;;;;;;;4.10;1.95;;;;;;;8.32;100.00;100727.78;5049402;28;20033;-73
2023/12/23 03:57:15;;;;;;;6.97;1.90;;;;;;;8.34;100.00;100734.56;5048148;28;20072;-73
2023/12/23 03:59:41;;;;;;;6.90;1.95;;;;;;;8.37;100.00;100743.19;5049360;28;20082;-73
2023/12/23 04:02:06;;;;;;;7.22;1.45;;;;;;;8.32;100.00;100731.28;5048029;28;20029;-73
2023/12/23 04:04:32;;;;;;;9.10;1.90;;;;;;;8.40;100.00;100727.72;5049169;28;20064;-72
2023/12/23 04:06:58;;;;;;;5.32;1.92;;;;;;;8.35;100.00;100725.59;5049213;28;20032;-72
2023/12/23 04:09:23;;;;;;;13.00;1.83;;;;;;;8.35;100.00;100716.78;5049178;28;20029;-73
2023/12/23 04:11:48;;;;;;;5.07;1.33;;;;;;;8.40;100.00;100725.06;5047901;28;20534;-73
2023/12/23 04:14:14;;;;;;;4.13;1.88;;;;;;;8.39;100.00;100723.44;5049142;28;20033;-73
2023/12/23 04:16:39;;;;;;;11.90;1.73;;;;;;;8.42;100.00;100714.25;5047698;28;20029;-73
2023/12/23 04:19:05;;;;;;;10.30;1.73;;;;;;;8.46;100.00;100719.03;5049005;28;20036;-72
2023/12/23 04:21:30;;;;;;;7.75;1.60;;;;;;;8.46;100.00;100718.19;5049107;28;20059;-73
2023/12/23 04:23:56;;;;;;;2.85;1.45;;;;;;;8.45;100.00;100709.38;5048939;28;20036;-73
2023/12/23 04:26:21;;;;;;;3.72;1.50;;;;;;;8.44;100.00;100707.75;5048794;28;20125;-73
2023/12/23 04:28:47;;;;;;;2.92;1.05;;;;;;;8.41;100.00;100691.34;5047158;28;20112;-73
2023/12/23 04:31:12;;;;;;;8.95;2.85;;;;;;;8.44;100.00;100693.66;5048911;28;20503;-73
2023/12/23 04:33:38;;;;;;;6.28;2.20;;;;;;;8.43;100.00;100679.50;5048932;28;20499;-73
2023/12/23 04:36:04;;;;;;;8.48;2.03;;;;;;;8.42;100.00;100666.44;5048905;28;20048;-73
2023/12/23 04:38:29;;;;;;;7.07;2.05;;;;;;;8.40;100.00;100663.13;5047141;28;20031;-73
2023/12/23 04:40:54;;;;;;;6.28;3.00;;;;;;;8.39;100.00;100661.47;5030733;28;20040;-73
2023/12/23 04:43:20;;;;;;;8.20;1.48;;;;;;;8.40;100.00;100669.25;5048676;28;20483;-73
2023/12/23 04:45:45;;;;;;;4.30;2.10;;;;;;;8.40;100.00;100665.78;5048747;28;20037;-73
2023/12/23 04:48:10;;;;;;;9.65;1.55;;;;;;;8.35;100.00;100668.97;5047391;28;20051;-73
2023/12/23 04:50:36;;;;;;;2.47;1.55;;;;;;;8.44;100.00;100677.69;5048391;28;20029;-73
2023/12/23 04:53:01;;;;;;;4.88;1.70;;;;;;;8.47;100.00;100690.59;5048765;28;20037;-73
2023/12/23 04:55:27;;;;;;;7.75;1.60;;;;;;;8.41;100.00;100694.00;5048671;28;20098;-73
2023/12/23 04:57:52;;;;;;;6.93;2.58;;;;;;;8.44;100.00;100686.50;5048607;28;20419;-73
2023/12/23 05:00:18;;;;;;;13.05;2.05;;;;;;;8.38;100.00;100676.56;5048745;28;20151;-72
2023/12/23 05:02:43;;;;;;;14.23;1.65;;;;;;;8.44;100.00;100677.69;5048536;28;20025;-73
2023/12/23 05:05:08;;;;;;;9.55;2.35;;;;;;;8.42;100.00;100685.03;5048478;28;20037;-73
2023/12/23 05:07:34;;;;;;;11.52;3.00;;;;;;;8.40;100.00;100663.94;5047246;28;20048;-73
2023/12/23 05:09:59;;;;;;;12.27;2.15;;;;;;;8.39;100.00;100674.75;5048569;28;20044;-72
2023/12/23 05:12:25;;;;;;;7.50;2.25;;;;;;;8.41;100.00;100683.38;5048574;28;20029;-73
2023/12/23 05:14:53;;;;;;;9.20;2.95;;;;;;;8.41;100.00;100678.91;5047233;28;20037;-73
2023/12/23 05:17:19;;;;;;;8.88;1.65;;;;;;;8.37;100.00;100668.78;5048543;28;20020;-72
2023/12/23 05:19:47;;;;;;;7.88;2.08;;;;;;;8.41;100.00;100660.28;5046843;28;20051;-72
2023/12/23 05:22:12;;;;;;;13.43;1.98;;;;;;;8.38;100.00;100660.63;5048426;28;20029;-73
2023/12/23 05:24:38;;;;;;;5.68;2.33;;;;;;;8.40;100.00;100660.47;5047455;28;20029;-73
2023/12/23 05:27:05;;;;;;;4.82;2.00;;;;;;;8.41;100.00;100654.13;5047180;28;20518;-73
2023/12/23 05:29:30;;;;;;;11.98;2.95;;;;;;;8.45;100.00;100664.22;5048087;28;20053;-73
2023/12/23 05:31:56;;;;;;;8.65;1.75;;;;;;;8.47;100.00;100656.88;5048349;28;20029;-73
2023/12/23 05:34:21;;;;;;;11.35;1.83;;;;;;;8.48;100.00;100665.66;5048492;28;20033;-72
2023/12/23 05:36:46;;;;;;;4.22;1.52;;;;;;;8.46;100.00;100646.41;5047005;28;20040;-73
2023/12/23 05:39:12;;;;;;;9.32;1.70;;;;;;;8.52;100.00;100658.97;5048302;28;20058;-72
2023/12/23 05:41:37;;;;;;;5.47;1.50;;;;;;;8.51;100.00;100654.66;5013816;28;20029;-72
2023/12/23 05:44:02;;;;;;;5.35;1.45;;;;;;;8.51;100.00;100647.53;5048140;28;20024;-73
2023/12/23 05:46:28;;;;;;;13.25;2.20;;;;;;;8.47;100.00;100653.41;5046828;28;20037;-72
2023/12/23 05:48:53;;;;;;;9.85;3.33;;;;;;;8.48;100.00;100655.84;5048238;28;20028;-73
2023/12/23 05:51:18;;;;;;;7.45;1.88;;;;;;;8.52;100.00;100662.47;5050413;28;20068;-73
2023/12/23 05:53:44;;;;;;;9.48;3.78;;;;;;;8.51;100.00;100654.66;5051593;28;20025;-73
2023/12/23 05:56:09;;;;;;;7.85;1.77;;;;;;;8.50;100.00;100645.06;5051835;28;20080;-73
2023/12/23 05:58:34;;;;;;;3.33;1.98;;;;;;;8.59;100.00;100654.53;5051616;28;20032;-73
2023/12/23 06:01:00;;;;;;;8.85;1.70;;;;;;;8.58;100.00;100658.22;5051452;28;20040;-72
2023/12/23 06:03:26;;;;;;;10.20;2.17;;;;;;;8.59;100.00;100659.03;5051506;28;20036;-72
2023/12/23 06:05:51;;;;;;;6.40;2.75;;;;;;;8.54;100.00;100646.31;5051317;28;20029;-73
2023/12/23 06:08:17;;;;;;;13.07;2.72;;;;;;;8.61;100.00;100659.69;5050057;28;20033;-73
2023/12/23 06:10:42;;;;;;;7.80;2.10;;;;;;;8.63;100.00;100661.13;5051233;28;20163;-73
2023/12/23 06:13:08;;;;;;;13.05;2.72;;;;;;;8.64;100.00;100635.38;5051331;28;20033;-73
2023/12/23 06:15:33;;;;;;;10.75;2.50;;;;;;;8.63;100.00;100653.16;5033271;28;20089;-73
2023/12/23 06:17:58;;;;;;;9.20;2.60;;;;;;;8.62;100.00;100648.88;5051246;28;20244;-73
2023/12/23 06:20:24;;;;;;;5.25;1.83;;;;;;;8.55;100.00;100654.09;5051076;28;20435;-73
2023/12/23 06:22:50;;;;;;;5.55;1.88;;;;;;;8.56;100.00;100657.56;5051113;28;20033;-73
2023/12/23 06:25:16;;;;;;;5.47;2.15;;;;;;;8.52;100.00;100662.47;5049634;28;20167;-73
2023/12/23 06:27:41;;;;;;;7.68;2.50;;;;;;;8.51;100.00;100662.63;5032856;28;20095;-73
2023/12/23 06:30:07;;;;;;;11.27;2.25;;;;;;;8.48;100.00;100655.03;5032909;28;20123;-73
2023/12/23 06:32:32;;;;;;;11.48;2.58;;;;;;;8.37;100.00;100639.56;5051003;28;20063;-73
2023/12/23 06:34:58;;;;;;;11.73;2.65;;;;;;;8.40;100.00;100655.16;5050903;28;20403;-73
2023/12/23 06:37:23;;;;;;;13.00;1.80;;;;;;;8.44;100.00;100656.44;5050976;28;20473;-73
2023/12/23 06:39:48;;;;;;;4.35;1.70;;;;;;;8.46;100.00;100676.50;5032784;28;20037;-73
2023/12/23 06:42:14;;;;;;;4.32;1.55;;;;;;;8.48;100.00;100663.00;5050751;28;20025;-73
2023/12/23 06:44:39;;;;;;;7.28;1.75;;;;;;;8.47;100.00;100661.38;5049329;28;20718;-73
2023/12/23 06:47:05;;;;;;;14.90;1.92;;;;;;;8.52;100.00;100640.38;5049337;28;20072;-73
2023/12/23 06:49:31;;;;;;;7.38;2.40;;;;;;;8.53;100.00;100653.47;5050576;28;20500;-73
2023/12/23 06:51:56;;;;;;;5.32;1.90;;;;;;;8.59;100.00;100659.84;5049152;28;20035;-73
2023/12/23 06:54:22;;;;;;;7.70;2.22;;;;;;;8.59;100.00;100645.75;5050694;28;20117;-73
2023/12/23 06:56:47;;;;;;;8.48;1.83;;;;;;;8.63;100.00;100658.47;5048978;28;20119;-73
2023/12/23 06:59:12;;;;;;;9.60;2.08;;;;;;;8.57;100.00;100637.97;5048938;28;20029;-73
2023/12/23 07:01:41;;;;;;;8.23;1.70;;;;;;;8.59;100.00;100625.28;5050383;28;20118;-73
2023/12/23 07:04:07;;;;;;;7.32;1.52;;;;;;;8.65;100.00;100663.63;5032503;28;20357;-73
2023/12/23 07:06:33;;;;;;;12.98;2.45;;;;;;;8.68;100.00;100634.00;5048925;28;20075;-73
2023/12/23 07:08:58;;;;;;;8.82;3.00;;;;;;;8.71;100.00;100645.06;5050144;28;20037;-73
2023/12/23 07:11:24;;;;;;;8.43;1.85;;;;;;;8.70;100.00;100648.75;5049942;28;20049;-73
2023/12/23 07:13:51;;;;;;;7.88;1.80;;;;;;;8.73;100.00;100651.03;5049947;28;20125;-73
2023/12/23 07:16:16;;;;;;;4.45;1.33;;;;;;;8.73;100.00;100629.75;5050151;28;20442;-72
2023/12/23 07:18:42;;;;;;;7.32;2.15;;;;;;;8.75;100.00;100638.38;5048546;28;20040;-73
2023/12/23 07:21:07;;;;;;;8.07;2.00;;;;;;;8.74;100.00;100630.56;5048667;28;20043;-73
2023/12/23 07:23:33;;;;;;;8.70;2.08;;;;;;;8.67;100.00;100638.50;5049854;28;20032;-73
2023/12/23 07:25:58;;;;;;;7.05;1.42;;;;;;;8.76;100.00;100642.66;5048499;28;20086;-73
2023/12/23 07:28:23;;;;;;;9.77;2.03;;;;;;;8.75;100.00;100635.72;5049548;28;20057;-73
2023/12/23 07:30:49;;;;;;;8.63;1.77;;;;;;;8.82;100.00;100657.03;5048488;28;20438;-73
2023/12/23 07:33:14;;;;;;;8.80;1.60;;;;;;;8.81;100.00;100658.06;5049842;28;20389;-73
2023/12/23 07:35:40;;;;;;;7.05;1.98;;;;;;;8.87;100.00;100654.63;5048454;28;20033;-72
2023/12/23 07:38:08;;;;;;;5.90;1.60;;;;;;;8.89;100.00;100665.09;5049568;28;20027;-73
2023/12/23 07:40:35;;;;;;;9.90;2.17;;;;;;;8.94;100.00;100660.00;5049573;28;20056;-73
2023/12/23 07:43:01;;;;;;;9.93;1.73;;;;;;;8.98;100.00;100666.59;5049474;28;20052;-73
2023/12/23 07:45:26;;;;;;;7.43;2.25;;;;;;;8.96;100.00;100634.03;5048073;28;20876;-73
2023/12/23 07:47:52;;;;;;;2.63;1.58;;;;;;;8.98;100.00;100650.63;5049321;28;20161;-73
2023/12/23 07:50:17;;;;;;;4.90;1.75;;;;;;;9.00;100.00;100646.75;5014870;28;20432;-73
2023/12/23 07:52:42;;;;;;;6.28;1.70;;;;;;;8.99;100.00;100634.50;5049008;28;20636;-73
2023/12/23 07:55:08;;;;;;;4.90;1.48;;;;;;;9.03;100.00;100650.88;5047412;28;20078;-73
2023/12/23 07:57:33;;;;;;;6.95;1.77;;;;;;;9.05;100.00;100669.31;5048586;28;20061;-73
2023/12/23 07:59:58;;;;;;;18.15;3.88;;;;;;;9.07;100.00;100665.44;5030364;28;20052;-73
2023/12/23 08:02:24;;;;;;;13.82;2.65;;;;;;;9.09;100.00;100662.59;5048216;28;20075;-73
2023/12/23 08:04:49;;;;;;;7.68;1.40;;;;;;;9.06;100.00;100653.16;5048417;28;20118;-73
2023/12/23 08:07:14;;;;;;;5.30;1.38;;;;;;;9.08;100.00;100672.41;5046986;28;20040;-73
2023/12/23 08:09:40;;;;;;;6.72;2.33;;;;;;;9.13;100.00;100663.88;5030633;28;20037;-74
2023/12/23 08:12:07;;;;;;;13.48;2.03;;;;;;;9.16;100.00;100668.78;5048710;28;20115;-73
2023/12/23 08:14:32;;;;;;;11.07;2.42;;;;;;;9.15;100.00;100667.16;5046653;28;20538;-73
2023/12/23 08:16:58;;;;;;;10.43;1.83;;;;;;;9.13;100.00;100650.56;5048450;28;20021;-74
2023/12/23 08:19:23;;;;;;;5.50;1.50;;;;;;;9.21;100.00;100671.69;5048375;28;20033;-71
2023/12/23 08:21:48;;;;;;;4.53;1.52;;;;;;;9.21;100.00;100679.69;5046653;28;20474;-74
2023/12/23 08:24:14;;;;;;;7.47;2.55;;;;;;;9.20;100.00;100676.22;5044902;28;20122;-76
2023/12/23 08:26:39;;;;;;;2.35;0.90;;;;;;;9.23;100.00;100669.69;5045541;28;20041;-73
2023/12/23 08:29:04;;;;;;;5.97;1.08;;;;;;;9.21;100.00;100664.53;5045584;28;20134;-73
2023/12/23 08:31:30;;;;;;;7.15;2.45;;;;;;;9.26;100.00;100671.94;5046439;28;20142;-74
2023/12/23 08:33:55;;;;;;;5.75;1.73;;;;;;;9.30;100.00;100675.88;5046403;28;20128;-74
2023/12/23 08:36:20;;;;;;;5.95;1.65;;;;;;;9.31;100.00;100666.88;5045968;28;20033;-74
2023/12/23 08:38:46;;;;;;;11.43;2.08;;;;;;;9.30;100.00;100673.22;5045456;28;20017;-74
2023/12/23 08:41:11;;;;;;;7.43;1.77;;;;;;;9.34;100.00;100679.78;5027198;28;20097;-73
2023/12/23 08:43:37;;;;;;;6.53;2.13;;;;;;;9.36;100.00;100676.94;5044282;28;20867;-73
2023/12/23 08:46:02;;;;;;;8.57;1.83;;;;;;;9.35;100.00;100678.78;5044279;28;20021;-73
2023/12/23 08:48:28;;;;;;;1.65;1.25;;;;;;;9.37;100.00;100681.25;5028215;28;20037;-73
2023/12/23 08:50:53;;;;;;;3.88;1.40;;;;;;;9.37;100.00;100674.06;5044460;28;20211;-74
2023/12/23 08:53:19;;;;;;;7.60;1.50;;;;;;;9.44;100.00;100685.59;5043866;28;20029;-74
2023/12/23 08:55:44;;;;;;;5.75;1.77;;;;;;;9.40;100.00;100686.19;5045849;28;20969;-73
2023/12/23 08:58:14;;;;;;;4.93;1.40;;;;;;;9.42;100.00;100690.28;5045924;28;20033;-73
2023/12/23 09:00:40;;;;;;;6.05;1.33;;;;;;;9.48;100.00;100699.34;5045819;28;20028;-72
2023/12/23 09:03:05;;;;;;;5.63;1.13;;;;;;;9.49;100.00;100686.88;5045628;28;20033;-72
2023/12/23 09:05:31;;;;;;;5.13;1.50;;;;;;;9.50;100.00;100710.63;5046196;28;20392;-74
2023/12/23 09:07:56;;;;;;;4.45;1.30;;;;;;;9.50;100.00;100715.13;5045545;28;20379;-72
2023/12/23 09:10:22;;;;;;;1.50;1.13;;;;;;;9.49;100.00;100706.34;5046042;28;20033;-72
2023/12/23 09:12:48;;;;;;;10.20;1.95;;;;;;;9.42;100.00;100732.06;5044943;28;20040;-75
2023/12/23 09:15:13;;;;;;;5.22;1.65;;;;;;;9.41;100.00;100723.25;5027557;28;20028;-76
2023/12/23 09:17:38;;;;;;;5.38;1.80;;;;;;;9.32;100.00;100727.06;5046402;28;20472;-75
2023/12/23 09:20:04;;;;;;;7.82;1.40;;;;;;;9.19;100.00;100734.94;5044815;28;20179;-74
2023/12/23 09:22:30;;;;;;;8.25;1.92;;;;;;;9.15;100.00;100731.84;5045134;28;20029;-73
2023/12/23 09:24:56;;;;;;;7.30;1.83;;;;;;;9.07;100.00;100737.28;5046010;28;20041;-76
2023/12/23 09:27:21;;;;;;;11.82;2.85;;;;;;;9.08;100.00;100714.16;5049831;28;20025;-73
2023/12/23 09:29:47;;;;;;;5.85;2.05;;;;;;;9.10;100.00;100728.09;5048592;28;20468;-73
2023/12/23 09:32:12;;;;;;;6.68;1.90;;;;;;;9.04;100.00;100735.00;5048466;28;20060;-71
2023/12/23 09:34:38;;;;;;;6.10;1.25;;;;;;;9.06;100.00;100721.50;5048430;28;20467;-72
2023/12/23 09:37:03;;;;;;;9.10;2.70;;;;;;;9.10;100.00;100749.38;5049727;28;20048;-72
2023/12/23 09:39:28;;;;;;;5.10;2.03;;;;;;;9.12;100.00;100753.50;5049365;28;20082;-72
2023/12/23 09:41:54;;;;;;;8.25;2.08;;;;;;;9.11;100.00;100746.50;5048991;28;20116;-71
2023/12/23 09:44:23;;;;;;;12.82;2.80;;;;;;;9.13;100.00;100733.84;5049201;28;20507;-72
2023/12/23 09:46:49;;;;;;;8.93;2.35;;;;;;;9.19;100.00;100742.91;5049511;28;20029;-71
2023/12/23 09:49:14;;;;;;;6.82;1.77;;;;;;;9.19;100.00;100738.41;5049694;28;20152;-72
2023/12/23 09:51:41;;;;;;;8.65;1.15;;;;;;;9.24;100.00;100758.31;5049608;28;20029;-71
2023/12/23 09:54:09;;;;;;;10.70;2.70;;;;;;;9.23;100.00;100764.66;5049375;28;20057;-71
2023/12/23 09:56:35;;;;;;;10.45;3.15;;;;;;;9.18;100.00;100749.25;5049414;28;20055;-72
2023/12/23 09:59:01;;;;;;;7.82;1.63;;;;;;;9.26;100.00;100758.94;5049933;28;20061;-71
2023/12/23 10:01:26;;;;;;;6.45;2.38;;;;;;;9.31;100.00;100762.69;5048377;28;20753;-71
2023/12/23 10:03:52;;;;;;;6.82;2.83;;;;;;;9.30;100.00;100760.19;5048595;28;20033;-72
2023/12/23 10:06:19;;;;;;;8.13;2.03;;;;;;;9.35;100.00;100779.94;5048764;28;20059;-72
2023/12/23 10:08:44;;;;;;;5.03;1.50;;;;;;;9.34;100.00;100777.44;5048870;28;20472;-71
2023/12/23 10:11:10;;;;;;;12.20;2.58;;;;;;;9.44;100.00;100775.28;5046821;28;20048;-72
2023/12/23 10:13:36;;;;;;;4.40;1.73;;;;;;;9.40;100.00;100785.47;5048857;28;20044;-72
2023/12/23 10:16:03;;;;;;;9.15;1.65;;;;;;;9.42;100.00;100769.34;5048695;28;20059;-72
2023/12/23 10:18:28;;;;;;;5.47;1.52;;;;;;;9.44;100.00;100772.63;5049149;28;20056;-72
2023/12/23 10:20:54;;;;;;;7.30;2.70;;;;;;;9.47;100.00;100772.25;5048750;28;20079;-74
2023/12/23 10:23:19;;;;;;;6.30;1.45;;;;;;;9.42;100.00;100764.81;5049028;28;20033;-72
2023/12/23 10:25:45;;;;;;;3.80;1.05;;;;;;;9.50;100.00;100763.88;5047553;28;20048;-71
2023/12/23 10:28:11;;;;;;;11.32;1.95;;;;;;;9.50;100.00;100745.25;5048718;28;20052;-72
2023/12/23 10:30:44;;;;;;;6.35;1.33;;;;;;;9.57;100.00;100745.31;5048830;28;20031;-72
2023/12/23 10:33:14;;;;;;;6.70;1.70;;;;;;;9.59;100.00;100749.41;5048664;28;20123;-72
2023/12/23 10:35:48;;;;;;;5.35;2.00;;;;;;;9.61;100.00;100757.19;5048512;28;20020;-71
2023/12/23 10:38:20;;;;;;;4.68;1.65;;;;;;;9.65;100.00;100761.97;5048836;28;20548;-72
2023/12/23 10:41:15;;;;;;;;;;;;;;;9.69;100.00;100753.56;5047981;28;20032;-72
2023/12/23 10:43:41;;;;;;;8.98;1.23;;;;;;;9.70;100.00;100753.41;5011811;28;19913;-70
2023/12/23 10:46:07;;;;;;;5.35;0.93;;;;;;;9.72;100.00;100759.34;5048334;28;20708;-71
2023/12/23 10:48:33;;;;;;;5.72;1.45;;;;;;;9.77;100.00;100748.09;5048544;28;20072;-71
2023/12/23 10:51:01;;;;;;;7.43;2.05;;;;;;;9.82;100.00;100745.69;5047534;28;20024;-71
2023/12/23 10:53:28;;;;;;;10.13;1.85;;;;;;;9.89;100.00;100733.25;5048445;28;20056;-71
2023/12/23 10:55:54;;;;;;;5.88;1.00;;;;;;;9.93;100.00;100731.84;5046532;28;20072;-71
2023/12/23 10:58:21;;;;;;;7.88;1.10;;;;;;;10.01;100.00;100746.84;5048241;28;20052;-71
2023/12/23 11:00:47;;;;;;;6.90;1.10;;;;;;;10.02;100.00;100729.84;5048117;28;20056;-71
2023/12/23 11:03:13;;;;;;;4.85;1.42;;;;;;;10.09;100.00;100746.69;5048439;28;20036;-71
2023/12/23 11:05:41;;;;;;;4.45;2.88;;;;;;;10.04;100.00;100727.81;5047788;28;20032;-71
2023/12/23 11:08:12;;;;;;;8.52;1.73;;;;;;;10.14;100.00;100748.75;5030483;28;20480;-71
2023/12/23 11:10:39;;;;;;;4.32;1.17;;;;;;;10.20;100.00;100756.81;5047136;28;20043;-72
2023/12/23 11:13:06;;;;;;;4.00;1.17;;;;;;;10.21;100.00;100762.94;5047972;28;20041;-71
2023/12/23 11:15:32;;;;;;;1.88;1.45;;;;;;;10.23;100.00;100774.25;5047811;28;20028;-72
2023/12/23 11:17:57;;;;;;;5.07;1.38;;;;;;;10.20;100.00;100769.31;5048090;28;20071;-72